Mountain, Texas
Current Conditions -  °F | °C
As of 12:35 PM on Tuesday 27 Jan 2015 (Local Time) from KGOP Reporting Station
Clear Clear  
Wind Chill: 73°   Ceiling: Unl
Heat Index: 73°   Visibility: 10mi
Dew Point: 39°   Wind: 0mph
Humidity: 29%   Direction: NA
Pressure: 30.2"   Gusts: NA
Location:  31.392°N, 97.7452°W
Report Text: KGOP 271835Z AUTO 00000KT 10SM CLR 23/04 A3020 RMK AO2
Loading
Personal Weather Stations






























Interactive Weather Map New forecast layout! Learn more

10-Day Weather Forecast

Advertisements
Track Severe Weather on mobile